sensor_id;sensor_type;location;lat;lon;timestamp;pressure;altitude;pressure_sealevel;temperature;humidity
62248;BME280;48237;50.140;8.486;2023-02-23T00:01:43;99221.68;;;10.67;79.54
62248;BME280;48237;50.140;8.486;2023-02-23T00:04:10;99222.31;;;10.75;81.42
62248;BME280;48237;50.140;8.486;2023-02-23T00:06:37;99222.29;;;10.64;82.05
62248;BME280;48237;50.140;8.486;2023-02-23T00:09:05;99225.71;;;10.16;83.40
62248;BME280;48237;50.140;8.486;2023-02-23T00:11:33;99222.23;;;11.24;78.96
62248;BME280;48237;50.140;8.486;2023-02-23T00:14:01;99221.21;;;11.88;77.52
62248;BME280;48237;50.140;8.486;2023-02-23T00:16:27;99219.72;;;11.16;77.77
62248;BME280;48237;50.140;8.486;2023-02-23T00:18:56;99221.92;;;11.16;78.70
62248;BME280;48237;50.140;8.486;2023-02-23T00:21:25;99222.27;;;11.04;80.36
62248;BME280;48237;50.140;8.486;2023-02-23T00:23:55;99217.73;;;11.90;76.35
62248;BME280;48237;50.140;8.486;2023-02-23T00:26:25;99220.73;;;10.89;80.28
62248;BME280;48237;50.140;8.486;2023-02-23T00:28:53;99222.65;;;10.24;82.96
62248;BME280;48237;50.140;8.486;2023-02-23T00:31:20;99222.61;;;10.63;81.09
62248;BME280;48237;50.140;8.486;2023-02-23T00:33:47;99222.88;;;10.61;81.41
62248;BME280;48237;50.140;8.486;2023-02-23T00:36:14;99216.61;;;11.47;78.29
62248;BME280;48237;50.140;8.486;2023-02-23T00:38:41;99224.05;;;10.60;80.28
62248;BME280;48237;50.140;8.486;2023-02-23T00:41:09;99219.07;;;11.54;77.51
62248;BME280;48237;50.140;8.486;2023-02-23T00:43:38;99222.23;;;11.56;76.98
62248;BME280;48237;50.140;8.486;2023-02-23T00:46:06;99225.18;;;11.00;80.11
62248;BME280;48237;50.140;8.486;2023-02-23T00:48:34;99226.67;;;10.53;81.73
62248;BME280;48237;50.140;8.486;2023-02-23T00:51:03;99227.12;;;11.21;79.92
62248;BME280;48237;50.140;8.486;2023-02-23T00:53:31;99221.03;;;11.70;76.22
62248;BME280;48237;50.140;8.486;2023-02-23T00:55:58;99222.65;;;11.56;76.36
62248;BME280;48237;50.140;8.486;2023-02-23T00:58:25;99223.00;;;12.06;75.21
62248;BME280;48237;50.140;8.486;2023-02-23T01:00:53;99220.43;;;11.66;76.27
62248;BME280;48237;50.140;8.486;2023-02-23T01:03:20;99220.25;;;11.73;76.16
62248;BME280;48237;50.140;8.486;2023-02-23T01:05:47;99226.63;;;11.57;76.58
62248;BME280;48237;50.140;8.486;2023-02-23T01:08:14;99228.01;;;11.39;77.08
62248;BME280;48237;50.140;8.486;2023-02-23T01:10:43;99229.11;;;10.06;82.67
62248;BME280;48237;50.140;8.486;2023-02-23T01:13:10;99223.50;;;11.02;80.04
62248;BME280;48237;50.140;8.486;2023-02-23T01:15:40;99216.98;;;10.01;82.51
62248;BME280;48237;50.140;8.486;2023-02-23T01:18:08;99218.87;;;10.01;84.19
62248;BME280;48237;50.140;8.486;2023-02-23T01:20:36;99216.34;;;10.87;81.06
62248;BME280;48237;50.140;8.486;2023-02-23T01:23:03;99217.10;;;10.22;83.17
62248;BME280;48237;50.140;8.486;2023-02-23T01:25:32;99215.69;;;11.08;79.39
62248;BME280;48237;50.140;8.486;2023-02-23T01:27:59;99216.37;;;10.47;83.92
62248;BME280;48237;50.140;8.486;2023-02-23T01:30:26;99216.06;;;11.20;82.57
62248;BME280;48237;50.140;8.486;2023-02-23T01:32:53;99218.23;;;10.74;83.67
62248;BME280;48237;50.140;8.486;2023-02-23T01:35:21;99217.81;;;10.17;85.90
62248;BME280;48237;50.140;8.486;2023-02-23T01:37:48;99218.57;;;10.23;84.12
62248;BME280;48237;50.140;8.486;2023-02-23T01:40:18;99222.47;;;10.23;86.49
62248;BME280;48237;50.140;8.486;2023-02-23T01:42:46;99220.90;;;10.86;85.92
62248;BME280;48237;50.140;8.486;2023-02-23T01:45:21;99219.47;;;10.82;84.03
62248;BME280;48237;50.140;8.486;2023-02-23T01:47:50;99220.15;;;10.32;87.75
62248;BME280;48237;50.140;8.486;2023-02-23T01:50:17;99217.73;;;10.09;90.08
62248;BME280;48237;50.140;8.486;2023-02-23T01:52:46;99218.67;;;10.45;87.03
62248;BME280;48237;50.140;8.486;2023-02-23T01:55:19;99218.87;;;10.86;84.35
62248;BME280;48237;50.140;8.486;2023-02-23T01:57:48;99216.16;;;11.01;84.75
62248;BME280;48237;50.140;8.486;2023-02-23T02:00:17;99215.89;;;11.17;85.63
62248;BME280;48237;50.140;8.486;2023-02-23T02:02:44;99214.04;;;10.01;88.93
62248;BME280;48237;50.140;8.486;2023-02-23T02:05:11;99212.90;;;10.83;87.59
62248;BME280;48237;50.140;8.486;2023-02-23T02:07:41;99214.47;;;10.87;87.20
62248;BME280;48237;50.140;8.486;2023-02-23T02:10:12;99215.16;;;10.37;89.77
62248;BME280;48237;50.140;8.486;2023-02-23T02:12:41;99211.54;;;10.85;88.30
62248;BME280;48237;50.140;8.486;2023-02-23T02:15:11;99209.11;;;11.53;86.94
62248;BME280;48237;50.140;8.486;2023-02-23T02:17:44;99208.65;;;11.56;84.93
62248;BME280;48237;50.140;8.486;2023-02-23T02:20:29;99207.72;;;11.00;86.76
62248;BME280;48237;50.140;8.486;2023-02-23T02:25:40;99206.46;;;10.82;90.28
62248;BME280;48237;50.140;8.486;2023-02-23T02:28:29;99205.69;;;10.62;88.05
62248;BME280;48237;50.140;8.486;2023-02-23T02:31:18;99205.40;;;11.05;88.95
62248;BME280;48237;50.140;8.486;2023-02-23T02:34:03;99205.10;;;10.83;88.69
62248;BME280;48237;50.140;8.486;2023-02-23T02:37:18;99203.01;;;10.52;91.08
62248;BME280;48237;50.140;8.486;2023-02-23T02:39:54;99201.28;;;10.55;90.20
62248;BME280;48237;50.140;8.486;2023-02-23T02:42:29;99199.20;;;10.94;89.31
62248;BME280;48237;50.140;8.486;2023-02-23T02:45:02;99192.89;;;11.32;86.01
62248;BME280;48237;50.140;8.486;2023-02-23T02:47:34;99192.19;;;11.42;86.28
62248;BME280;48237;50.140;8.486;2023-02-23T02:50:09;99192.57;;;11.04;86.64
62248;BME280;48237;50.140;8.486;2023-02-23T02:52:43;99191.18;;;10.48;91.16
62248;BME280;48237;50.140;8.486;2023-02-23T02:55:15;99190.00;;;10.38;89.87
62248;BME280;48237;50.140;8.486;2023-02-23T02:57:45;99191.36;;;11.40;86.24
62248;BME280;48237;50.140;8.486;2023-02-23T03:00:18;99187.52;;;11.16;87.14
62248;BME280;48237;50.140;8.486;2023-02-23T03:02:46;99188.84;;;11.08;88.14
62248;BME280;48237;50.140;8.486;2023-02-23T03:05:15;99190.59;;;10.94;87.67
62248;BME280;48237;50.140;8.486;2023-02-23T03:07:51;99192.84;;;10.65;90.16
62248;BME280;48237;50.140;8.486;2023-02-23T03:10:28;99188.88;;;10.74;88.76
62248;BME280;48237;50.140;8.486;2023-02-23T03:13:07;99188.86;;;10.83;88.12
62248;BME280;48237;50.140;8.486;2023-02-23T03:15:45;99186.14;;;10.96;87.97
62248;BME280;48237;50.140;8.486;2023-02-23T03:18:29;99187.72;;;10.99;88.21
62248;BME280;48237;50.140;8.486;2023-02-23T03:21:07;99189.32;;;11.02;88.57
62248;BME280;48237;50.140;8.486;2023-02-23T03:23:44;99187.11;;;11.13;87.99
62248;BME280;48237;50.140;8.486;2023-02-23T03:26:20;99192.99;;;10.50;89.92
62248;BME280;48237;50.140;8.486;2023-02-23T03:28:58;99194.32;;;10.76;88.85
62248;BME280;48237;50.140;8.486;2023-02-23T03:31:35;99191.98;;;11.03;88.75
62248;BME280;48237;50.140;8.486;2023-02-23T03:34:09;99191.50;;;10.55;90.27
62248;BME280;48237;50.140;8.486;2023-02-23T03:36:40;99195.26;;;11.14;89.07
62248;BME280;48237;50.140;8.486;2023-02-23T03:39:14;99192.92;;;11.03;88.22
62248;BME280;48237;50.140;8.486;2023-02-23T03:41:45;99195.14;;;10.70;90.91
62248;BME280;48237;50.140;8.486;2023-02-23T03:44:19;99195.34;;;10.62;90.99
62248;BME280;48237;50.140;8.486;2023-02-23T03:46:50;99200.20;;;10.10;95.05
62248;BME280;48237;50.140;8.486;2023-02-23T03:49:20;99197.68;;;10.61;91.93
62248;BME280;48237;50.140;8.486;2023-02-23T03:51:52;99196.22;;;10.20;94.58
62248;BME280;48237;50.140;8.486;2023-02-23T03:54:26;99195.33;;;11.01;89.90
62248;BME280;48237;50.140;8.486;2023-02-23T03:57:00;99194.49;;;10.92;89.72
62248;BME280;48237;50.140;8.486;2023-02-23T03:59:33;99196.67;;;10.04;93.76
62248;BME280;48237;50.140;8.486;2023-02-23T04:02:02;99194.75;;;10.94;90.65
62248;BME280;48237;50.140;8.486;2023-02-23T04:04:31;99199.70;;;10.39;93.47
62248;BME280;48237;50.140;8.486;2023-02-23T04:07:01;99201.41;;;11.07;91.04
62248;BME280;48237;50.140;8.486;2023-02-23T04:09:29;99199.48;;;10.33;94.45
62248;BME280;48237;50.140;8.486;2023-02-23T04:12:03;99199.76;;;10.70;90.47
62248;BME280;48237;50.140;8.486;2023-02-23T04:14:35;99202.32;;;10.07;96.14
62248;BME280;48237;50.140;8.486;2023-02-23T04:17:05;99199.69;;;9.89;96.75
62248;BME280;48237;50.140;8.486;2023-02-23T04:19:34;99198.68;;;9.91;97.59
62248;BME280;48237;50.140;8.486;2023-02-23T04:22:01;99202.24;;;9.85;96.56
62248;BME280;48237;50.140;8.486;2023-02-23T04:24:28;99201.56;;;9.07;100.00
62248;BME280;48237;50.140;8.486;2023-02-23T04:26:55;99202.66;;;9.90;98.20
62248;BME280;48237;50.140;8.486;2023-02-23T04:29:22;99204.40;;;11.25;91.25
62248;BME280;48237;50.140;8.486;2023-02-23T04:31:49;99209.40;;;10.34;95.57
62248;BME280;48237;50.140;8.486;2023-02-23T04:34:16;99210.97;;;9.94;96.19
62248;BME280;48237;50.140;8.486;2023-02-23T04:36:43;99212.56;;;10.92;93.63
62248;BME280;48237;50.140;8.486;2023-02-23T04:39:10;99213.74;;;10.33;94.73
62248;BME280;48237;50.140;8.486;2023-02-23T04:41:37;99212.38;;;10.85;93.82
62248;BME280;48237;50.140;8.486;2023-02-23T04:44:04;99210.52;;;10.59;93.02
62248;BME280;48237;50.140;8.486;2023-02-23T04:46:31;99215.35;;;10.42;95.21
62248;BME280;48237;50.140;8.486;2023-02-23T04:48:59;99212.34;;;10.75;94.45
62248;BME280;48237;50.140;8.486;2023-02-23T04:51:26;99212.47;;;10.27;95.55
62248;BME280;48237;50.140;8.486;2023-02-23T04:53:53;99211.43;;;11.07;92.33
62248;BME280;48237;50.140;8.486;2023-02-23T04:56:21;99211.15;;;11.05;92.53
62248;BME280;48237;50.140;8.486;2023-02-23T04:58:48;99210.01;;;10.55;91.04
62248;BME280;48237;50.140;8.486;2023-02-23T05:01:15;99213.47;;;11.24;88.05
62248;BME280;48237;50.140;8.486;2023-02-23T05:03:43;99215.59;;;11.49;88.53
62248;BME280;48237;50.140;8.486;2023-02-23T05:06:09;99213.69;;;11.25;89.08
62248;BME280;48237;50.140;8.486;2023-02-23T05:08:37;99215.18;;;10.71;90.81
62248;BME280;48237;50.140;8.486;2023-02-23T05:11:05;99213.47;;;11.08;90.59
62248;BME280;48237;50.140;8.486;2023-02-23T05:13:33;99213.13;;;10.75;94.14
62248;BME280;48237;50.140;8.486;2023-02-23T05:16:00;99211.62;;;10.44;93.82
62248;BME280;48237;50.140;8.486;2023-02-23T05:18:27;99210.01;;;11.23;91.35
62248;BME280;48237;50.140;8.486;2023-02-23T05:21:01;99210.50;;;11.50;90.32
62248;BME280;48237;50.140;8.486;2023-02-23T05:23:29;99211.01;;;10.93;93.55
62248;BME280;48237;50.140;8.486;2023-02-23T05:25:59;99213.02;;;10.88;93.20
62248;BME280;48237;50.140;8.486;2023-02-23T05:28:26;99212.62;;;11.44;91.05
62248;BME280;48237;50.140;8.486;2023-02-23T05:30:53;99211.61;;;10.88;92.05
62248;BME280;48237;50.140;8.486;2023-02-23T05:33:21;99213.44;;;10.96;94.41
62248;BME280;48237;50.140;8.486;2023-02-23T05:35:48;99211.94;;;10.79;94.28
62248;BME280;48237;50.140;8.486;2023-02-23T05:38:15;99213.26;;;11.27;93.95
62248;BME280;48237;50.140;8.486;2023-02-23T05:40:42;99215.05;;;10.64;95.23
62248;BME280;48237;50.140;8.486;2023-02-23T05:43:09;99213.64;;;11.23;93.37
62248;BME280;48237;50.140;8.486;2023-02-23T05:45:39;99215.65;;;10.86;96.58
62248;BME280;48237;50.140;8.486;2023-02-23T05:48:07;99216.83;;;10.78;97.50
62248;BME280;48237;50.140;8.486;2023-02-23T05:50:34;99216.71;;;11.57;93.03
62248;BME280;48237;50.140;8.486;2023-02-23T05:53:02;99220.79;;;10.01;98.62
62248;BME280;48237;50.140;8.486;2023-02-23T05:55:29;99222.38;;;10.09;97.93
62248;BME280;48237;50.140;8.486;2023-02-23T05:57:56;99220.56;;;10.54;97.95
62248;BME280;48237;50.140;8.486;2023-02-23T06:00:24;99220.01;;;11.00;95.38
62248;BME280;48237;50.140;8.486;2023-02-23T06:02:51;99219.90;;;10.55;97.86
62248;BME280;48237;50.140;8.486;2023-02-23T06:05:18;99220.35;;;11.38;91.58
62248;BME280;48237;50.140;8.486;2023-02-23T06:07:45;99223.48;;;10.69;96.04
62248;BME280;48237;50.140;8.486;2023-02-23T06:10:13;99218.90;;;11.21;91.97
62248;BME280;48237;50.140;8.486;2023-02-23T06:12:40;99216.91;;;11.40;90.76
62248;BME280;48237;50.140;8.486;2023-02-23T06:15:08;99217.16;;;11.35;90.04
62248;BME280;48237;50.140;8.486;2023-02-23T06:17:35;99215.62;;;11.28;89.73
62248;BME280;48237;50.140;8.486;2023-02-23T06:20:02;99223.24;;;11.49;90.27
62248;BME280;48237;50.140;8.486;2023-02-23T06:22:30;99222.86;;;10.57;95.42
62248;BME280;48237;50.140;8.486;2023-02-23T06:24:57;99230.78;;;10.03;97.89
62248;BME280;48237;50.140;8.486;2023-02-23T06:27:24;99229.27;;;11.14;95.52
62248;BME280;48237;50.140;8.486;2023-02-23T06:29:51;99229.38;;;11.20;92.43
62248;BME280;48237;50.140;8.486;2023-02-23T06:32:19;99229.22;;;11.26;94.74
62248;BME280;48237;50.140;8.486;2023-02-23T06:34:46;99230.86;;;11.10;93.55
62248;BME280;48237;50.140;8.486;2023-02-23T06:37:13;99233.68;;;11.66;93.20
62248;BME280;48237;50.140;8.486;2023-02-23T06:39:40;99236.36;;;11.52;92.34
62248;BME280;48237;50.140;8.486;2023-02-23T06:42:07;99236.88;;;11.26;91.36
62248;BME280;48237;50.140;8.486;2023-02-23T06:44:34;99236.63;;;11.17;91.43
62248;BME280;48237;50.140;8.486;2023-02-23T06:47:03;99240.50;;;10.68;96.39
62248;BME280;48237;50.140;8.486;2023-02-23T06:49:30;99243.51;;;10.92;95.05
62248;BME280;48237;50.140;8.486;2023-02-23T06:51:57;99245.51;;;10.56;98.06
62248;BME280;48237;50.140;8.486;2023-02-23T06:54:25;99249.64;;;10.33;97.15
62248;BME280;48237;50.140;8.486;2023-02-23T06:56:52;99247.95;;;10.23;98.77
62248;BME280;48237;50.140;8.486;2023-02-23T06:59:19;99253.72;;;11.23;95.00
62248;BME280;48237;50.140;8.486;2023-02-23T07:01:46;99255.49;;;11.49;92.48
62248;BME280;48237;50.140;8.486;2023-02-23T07:04:13;99254.97;;;11.01;94.41
62248;BME280;48237;50.140;8.486;2023-02-23T07:06:40;99255.53;;;11.67;90.86
62248;BME280;48237;50.140;8.486;2023-02-23T07:09:07;99263.06;;;10.08;98.48
62248;BME280;48237;50.140;8.486;2023-02-23T07:11:34;99261.51;;;10.90;95.78
62248;BME280;48237;50.140;8.486;2023-02-23T07:14:01;99263.59;;;11.59;93.61
62248;BME280;48237;50.140;8.486;2023-02-23T07:16:28;99264.42;;;11.67;91.49
62248;BME280;48237;50.140;8.486;2023-02-23T07:18:55;99267.23;;;10.99;94.90
62248;BME280;48237;50.140;8.486;2023-02-23T07:21:22;99265.83;;;11.91;90.13
62248;BME280;48237;50.140;8.486;2023-02-23T07:23:49;99270.15;;;11.48;92.79
62248;BME280;48237;50.140;8.486;2023-02-23T07:26:16;99270.23;;;11.47;92.63
62248;BME280;48237;50.140;8.486;2023-02-23T07:28:43;99270.91;;;10.46;97.57
62248;BME280;48237;50.140;8.486;2023-02-23T07:31:11;99273.02;;;10.18;100.00
62248;BME280;48237;50.140;8.486;2023-02-23T07:33:37;99270.83;;;10.91;97.46
62248;BME280;48237;50.140;8.486;2023-02-23T07:36:05;99271.67;;;11.48;94.69
62248;BME280;48237;50.140;8.486;2023-02-23T07:38:32;99270.26;;;11.64;93.45
62248;BME280;48237;50.140;8.486;2023-02-23T07:40:59;99272.06;;;11.77;91.46
62248;BME280;48237;50.140;8.486;2023-02-23T07:43:27;99269.01;;;12.08;92.07
62248;BME280;48237;50.140;8.486;2023-02-23T07:45:58;99271.37;;;11.68;93.27
62248;BME280;48237;50.140;8.486;2023-02-23T07:48:25;99270.50;;;12.25;90.47
62248;BME280;48237;50.140;8.486;2023-02-23T07:50:52;99274.84;;;12.11;91.92
62248;BME280;48237;50.140;8.486;2023-02-23T07:53:20;99279.24;;;10.99;98.05
62248;BME280;48237;50.140;8.486;2023-02-23T07:55:54;99281.20;;;11.92;94.34
62248;BME280;48237;50.140;8.486;2023-02-23T07:58:22;99282.67;;;11.92;92.54
62248;BME280;48237;50.140;8.486;2023-02-23T08:00:49;99279.96;;;12.21;90.87
62248;BME280;48237;50.140;8.486;2023-02-23T08:03:16;99281.35;;;11.97;92.30
62248;BME280;48237;50.140;8.486;2023-02-23T08:05:43;99284.09;;;11.88;93.97
62248;BME280;48237;50.140;8.486;2023-02-23T08:08:10;99289.76;;;11.17;98.41
62248;BME280;48237;50.140;8.486;2023-02-23T08:10:38;99290.11;;;11.64;94.39
62248;BME280;48237;50.140;8.486;2023-02-23T08:13:06;99285.61;;;12.10;93.08
62248;BME280;48237;50.140;8.486;2023-02-23T08:15:33;99287.44;;;12.33;92.28
62248;BME280;48237;50.140;8.486;2023-02-23T08:18:00;99287.65;;;12.51;90.92
62248;BME280;48237;50.140;8.486;2023-02-23T08:20:27;99291.73;;;12.11;94.78
62248;BME280;48237;50.140;8.486;2023-02-23T08:22:55;99293.44;;;11.96;94.70
62248;BME280;48237;50.140;8.486;2023-02-23T08:25:23;99290.85;;;11.76;96.04
62248;BME280;48237;50.140;8.486;2023-02-23T08:27:50;99286.34;;;12.52;90.60
62248;BME280;48237;50.140;8.486;2023-02-23T08:30:18;99293.03;;;12.03;93.20
62248;BME280;48237;50.140;8.486;2023-02-23T08:32:46;99297.97;;;11.39;98.40
62248;BME280;48237;50.140;8.486;2023-02-23T08:35:13;99300.44;;;10.76;100.00
62248;BME280;48237;50.140;8.486;2023-02-23T08:37:40;99293.98;;;12.20;94.35
62248;BME280;48237;50.140;8.486;2023-02-23T08:40:09;99294.57;;;12.50;93.60
62248;BME280;48237;50.140;8.486;2023-02-23T08:42:36;99303.48;;;11.27;98.71
62248;BME280;48237;50.140;8.486;2023-02-23T08:45:03;99301.78;;;11.56;100.00
62248;BME280;48237;50.140;8.486;2023-02-23T08:47:31;99296.96;;;12.58;93.69
62248;BME280;48237;50.140;8.486;2023-02-23T08:49:58;99295.37;;;12.84;89.96
62248;BME280;48237;50.140;8.486;2023-02-23T08:52:25;99303.04;;;11.76;97.27
62248;BME280;48237;50.140;8.486;2023-02-23T08:54:53;99297.26;;;12.69;91.97
62248;BME280;48237;50.140;8.486;2023-02-23T08:57:20;99306.04;;;11.29;100.00
62248;BME280;48237;50.140;8.486;2023-02-23T08:59:48;99308.54;;;11.58;99.18
62248;BME280;48237;50.140;8.486;2023-02-23T09:02:15;99301.92;;;12.32;94.81
62248;BME280;48237;50.140;8.486;2023-02-23T09:04:42;99302.99;;;13.19;90.49
62248;BME280;48237;50.140;8.486;2023-02-23T09:07:13;99304.65;;;13.14;89.88
62248;BME280;48237;50.140;8.486;2023-02-23T09:09:41;99306.12;;;11.98;94.72
62248;BME280;48237;50.140;8.486;2023-02-23T09:12:08;99307.66;;;11.98;94.19
62248;BME280;48237;50.140;8.486;2023-02-23T09:14:34;99315.73;;;11.73;95.95
62248;BME280;48237;50.140;8.486;2023-02-23T09:17:02;99313.70;;;12.31;93.83
62248;BME280;48237;50.140;8.486;2023-02-23T09:19:28;99317.08;;;11.23;100.00
62248;BME280;48237;50.140;8.486;2023-02-23T09:21:55;99318.03;;;11.82;99.09
62248;BME280;48237;50.140;8.486;2023-02-23T09:24:23;99322.28;;;11.26;100.00
62248;BME280;48237;50.140;8.486;2023-02-23T09:26:49;99315.09;;;12.84;94.70
62248;BME280;48237;50.140;8.486;2023-02-23T09:29:16;99316.48;;;13.24;94.09
62248;BME280;48237;50.140;8.486;2023-02-23T09:31:43;99319.38;;;13.21;91.45
62248;BME280;48237;50.140;8.486;2023-02-23T09:34:10;99325.01;;;11.73;99.99
62248;BME280;48237;50.140;8.486;2023-02-23T09:36:38;99326.07;;;11.83;100.00
62248;BME280;48237;50.140;8.486;2023-02-23T09:39:04;99324.45;;;11.83;100.00
62248;BME280;48237;50.140;8.486;2023-02-23T09:41:49;99323.56;;;11.78;100.00
62248;BME280;48237;50.140;8.486;2023-02-23T09:44:25;99325.92;;;9.29;100.00
62248;BME280;48237;50.140;8.486;2023-02-23T09:47:08;99326.82;;;8.61;100.00
62248;BME280;48237;50.140;8.486;2023-02-23T09:49:41;99325.27;;;10.06;100.00
62248;BME280;48237;50.140;8.486;2023-02-23T09:52:15;99326.12;;;10.83;100.00
62248;BME280;48237;50.140;8.486;2023-02-23T09:54:45;99322.10;;;12.04;100.00
62248;BME280;48237;50.140;8.486;2023-02-23T09:57:16;99326.03;;;10.85;100.00
62248;BME280;48237;50.140;8.486;2023-02-23T09:59:45;99325.90;;;11.86;100.00
62248;BME280;48237;50.140;8.486;2023-02-23T10:02:20;99321.28;;;13.48;94.54
62248;BME280;48237;50.140;8.486;2023-02-23T10:04:51;99323.89;;;13.55;94.52
62248;BME280;48237;50.140;8.486;2023-02-23T10:07:25;99328.09;;;13.10;97.90
62248;BME280;48237;50.140;8.486;2023-02-23T10:10:03;99327.56;;;13.88;94.47
62248;BME280;48237;50.140;8.486;2023-02-23T10:12:43;99326.29;;;13.91;93.52
62248;BME280;48237;50.140;8.486;2023-02-23T10:15:24;99327.15;;;13.80;94.23
62248;BME280;48237;50.140;8.486;2023-02-23T10:18:03;99327.45;;;14.17;91.21
62248;BME280;48237;50.140;8.486;2023-02-23T10:20:42;99329.84;;;13.90;92.61
62248;BME280;48237;50.140;8.486;2023-02-23T10:23:16;99331.54;;;14.09;91.18
62248;BME280;48237;50.140;8.486;2023-02-23T10:25:47;99331.04;;;14.21;90.38
62248;BME280;48237;50.140;8.486;2023-02-23T10:28:17;99331.65;;;13.63;94.06
62248;BME280;48237;50.140;8.486;2023-02-23T10:30:45;99328.70;;;14.19;93.17
62248;BME280;48237;50.140;8.486;2023-02-23T10:33:15;99331.45;;;14.32;89.57
62248;BME280;48237;50.140;8.486;2023-02-23T10:35:46;99331.48;;;13.63;96.80
62248;BME280;48237;50.140;8.486;2023-02-23T10:38:16;99329.82;;;14.46;92.31
62248;BME280;48237;50.140;8.486;2023-02-23T10:40:47;99331.52;;;14.42;90.28
62248;BME280;48237;50.140;8.486;2023-02-23T10:43:15;99330.45;;;15.17;89.39
62248;BME280;48237;50.140;8.486;2023-02-23T10:45:44;99334.79;;;14.29;89.95
62248;BME280;48237;50.140;8.486;2023-02-23T10:48:16;99334.49;;;15.19;85.23
62248;BME280;48237;50.140;8.486;2023-02-23T10:50:46;99340.06;;;12.09;100.00
62248;BME280;48237;50.140;8.486;2023-02-23T10:53:18;99334.91;;;13.79;94.18
62248;BME280;48237;50.140;8.486;2023-02-23T10:56:00;99336.29;;;13.21;96.64
62248;BME280;48237;50.140;8.486;2023-02-23T10:58:30;99337.35;;;14.12;93.31
62248;BME280;48237;50.140;8.486;2023-02-23T11:00:59;99333.72;;;14.12;92.78
62248;BME280;48237;50.140;8.486;2023-02-23T11:03:31;99335.17;;;13.68;95.12
62248;BME280;48237;50.140;8.486;2023-02-23T11:05:59;99328.95;;;14.68;87.78
62248;BME280;48237;50.140;8.486;2023-02-23T11:08:29;99328.80;;;14.84;88.39
62248;BME280;48237;50.140;8.486;2023-02-23T11:11:01;99333.81;;;13.81;92.66
62248;BME280;48237;50.140;8.486;2023-02-23T11:13:35;99330.20;;;14.02;90.25
62248;BME280;48237;50.140;8.486;2023-02-23T11:16:05;99328.95;;;14.14;91.11
62248;BME280;48237;50.140;8.486;2023-02-23T11:18:33;99331.67;;;11.82;100.00
62248;BME280;48237;50.140;8.486;2023-02-23T11:21:00;99329.60;;;12.40;98.16
62248;BME280;48237;50.140;8.486;2023-02-23T11:23:30;99326.50;;;14.72;86.66
62248;BME280;48237;50.140;8.486;2023-02-23T11:26:02;99324.98;;;14.36;86.06
62248;BME280;48237;50.140;8.486;2023-02-23T11:28:32;99323.68;;;15.09;82.98
62248;BME280;48237;50.140;8.486;2023-02-23T11:31:03;99323.38;;;15.01;83.87
62248;BME280;48237;50.140;8.486;2023-02-23T11:33:32;99323.40;;;14.58;83.53
62248;BME280;48237;50.140;8.486;2023-02-23T11:36:14;99324.32;;;13.74;89.32
62248;BME280;48237;50.140;8.486;2023-02-23T11:38:44;99321.17;;;14.94;85.43
62248;BME280;48237;50.140;8.486;2023-02-23T11:41:21;99319.71;;;14.71;83.62
62248;BME280;48237;50.140;8.486;2023-02-23T11:43:49;99318.28;;;14.10;90.07
62248;BME280;48237;50.140;8.486;2023-02-23T11:46:18;99320.83;;;13.67;84.67
62248;BME280;48237;50.140;8.486;2023-02-23T11:48:49;99316.89;;;15.20;79.82
62248;BME280;48237;50.140;8.486;2023-02-23T11:51:25;99314.57;;;14.74;79.22
62248;BME280;48237;50.140;8.486;2023-02-23T11:53:52;99316.70;;;14.14;81.20
62248;BME280;48237;50.140;8.486;2023-02-23T11:56:21;99313.21;;;14.47;83.47
62248;BME280;48237;50.140;8.486;2023-02-23T11:58:50;99309.46;;;14.37;81.86
62248;BME280;48237;50.140;8.486;2023-02-23T12:01:23;99313.66;;;13.67;87.32
62248;BME280;48237;50.140;8.486;2023-02-23T12:03:59;99307.73;;;13.84;88.25
62248;BME280;48237;50.140;8.486;2023-02-23T12:06:29;99304.76;;;14.14;82.24
62248;BME280;48237;50.140;8.486;2023-02-23T12:09:01;99304.48;;;14.01;84.54
62248;BME280;48237;50.140;8.486;2023-02-23T12:11:36;99298.77;;;14.21;83.51
62248;BME280;48237;50.140;8.486;2023-02-23T12:14:09;99295.28;;;14.12;82.97
62248;BME280;48237;50.140;8.486;2023-02-23T12:16:39;99296.61;;;13.54;84.55
62248;BME280;48237;50.140;8.486;2023-02-23T12:19:20;99298.30;;;14.06;84.47
62248;BME280;48237;50.140;8.486;2023-02-23T12:21:54;99297.55;;;14.02;84.86
62248;BME280;48237;50.140;8.486;2023-02-23T12:24:36;99299.76;;;13.27;87.14
62248;BME280;48237;50.140;8.486;2023-02-23T12:27:10;99304.09;;;13.43;89.88
62248;BME280;48237;50.140;8.486;2023-02-23T12:29:45;99301.39;;;13.03;85.81
62248;BME280;48237;50.140;8.486;2023-02-23T12:32:18;99303.22;;;12.66;86.48
62248;BME280;48237;50.140;8.486;2023-02-23T12:34:50;99304.04;;;11.95;89.92
62248;BME280;48237;50.140;8.486;2023-02-23T12:37:31;99303.72;;;11.76;90.55
62248;BME280;48237;50.140;8.486;2023-02-23T12:40:10;99302.40;;;11.87;89.75
62248;BME280;48237;50.140;8.486;2023-02-23T12:42:45;99305.62;;;11.23;92.98
62248;BME280;48237;50.140;8.486;2023-02-23T12:45:22;99303.81;;;10.70;97.55
62248;BME280;48237;50.140;8.486;2023-02-23T12:47:59;99300.89;;;10.47;100.00
62248;BME280;48237;50.140;8.486;2023-02-23T12:50:31;99305.53;;;9.08;100.00
62248;BME280;48237;50.140;8.486;2023-02-23T12:53:03;99300.86;;;10.69;100.00
62248;BME280;48237;50.140;8.486;2023-02-23T12:55:38;99304.59;;;10.81;98.37
62248;BME280;48237;50.140;8.486;2023-02-23T12:58:16;99301.64;;;11.72;95.00
62248;BME280;48237;50.140;8.486;2023-02-23T13:00:56;99299.10;;;11.60;95.41
62248;BME280;48237;50.140;8.486;2023-02-23T13:03:38;99301.03;;;10.56;98.35
62248;BME280;48237;50.140;8.486;2023-02-23T13:06:16;99297.99;;;11.08;95.85
62248;BME280;48237;50.140;8.486;2023-02-23T13:08:56;99295.96;;;11.47;94.74
62248;BME280;48237;50.140;8.486;2023-02-23T13:11:37;99294.62;;;11.65;93.83
62248;BME280;48237;50.140;8.486;2023-02-23T13:14:12;99292.16;;;12.07;91.56
62248;BME280;48237;50.140;8.486;2023-02-23T13:16:44;99291.98;;;11.44;94.26
62248;BME280;48237;50.140;8.486;2023-02-23T13:19:17;99291.57;;;11.02;95.85